Terminal Aerodrome Forecast
Issued by NWS

Home | Current Version | Previous Version | Text Only | Print | Product List | Glossary On
Versions: 1 2 3 4 5 6 7 8 9 10 11 12 13 14 15 16 17
000
FTUS43 KGRR 281700
TAFBTL
TAF
KBTL 281740Z 2818/2918 05005KT P6SM SKC
     FM290800 19008KT P6SM BKN150
     FM291400 20014G24KT P6SM OVC080=

USA.gov is the U.S. government's official web portal to all federal, state and local government web resources and services.